Japan Airlines Virtual Airport Information Service

Hong Kong International Airport

ICAO: VHHH Country: Hong Kong
Latitude: 22.3089 Longitude: 113.915
Latest Arrival : CPA539 (RJGG-VHHH) Latest Departure : HDA380 (VHHH-RJFF)


WX CaptureLIVE
Data provided by noaa.gov | Fetched at 12:47:57

METAR : VHHH 061230Z 09010KT 9999 FEW020 30/25 Q1010 NOSIG

TAF : VHHH 061100Z 0612/0718 11010KT 9999 FEW015 TX34/0706Z TN29/0622Z TEMPO 0621/0703 VRB05KT TEMPO 0703/0709 26010KT


Runway Data for VHHH
Data provided by openaviationdata.com

Runway ID Mag Var Hdg Length Elevation Surface ILS Freq ILS Id ILS Slope
07L -2 72° 12431 ft 28 ft Asphalt 111.1 IZSL 3
07R -2 72° 12431 ft 28 ft Asphalt 109.3 ISR 3
25L -2 252° 12431 ft 28 ft Asphalt 108.9 IFL 3
25R -2 252° 12431 ft 28 ft Asphalt 110.9 ITFR 3

Hong Kong International Airport, Hong Kong
Use only for reference purposes



Not for navigational purposes.